createdAt,value
2018-11-01T00:00:01.171Z,14.1
2018-11-01T00:05:01.107Z,13.6
2018-11-01T00:10:01.182Z,13.3
2018-11-01T00:15:06.127Z,12.8
2018-11-01T00:20:06.253Z,13.2
2018-11-01T00:25:01.136Z,13.0
2018-11-01T00:30:01.206Z,13.5
2018-11-01T00:35:01.135Z,14.1
2018-11-01T00:40:01.152Z,14.5
2018-11-01T00:45:06.119Z,14.1
2018-11-01T00:50:06.247Z,13.2
2018-11-01T00:55:01.141Z,12.8
2018-11-01T01:00:06.241Z,12.8
2018-11-01T01:10:06.189Z,13.5
2018-11-01T01:15:06.122Z,13.6
2018-11-01T01:20:01.174Z,13.4
2018-11-01T01:30:01.113Z,13.1
2018-11-01T01:36:06.141Z,12.7
2018-11-01T01:41:01.218Z,13.5
2018-11-01T01:46:06.117Z,13.6
2018-11-01T01:51:06.124Z,13.4
2018-11-01T01:56:01.148Z,13.0
2018-11-01T02:01:06.183Z,12.8
2018-11-01T02:06:01.149Z,12.3
2018-11-01T02:11:01.220Z,12.8
2018-11-01T02:16:01.150Z,12.6
2018-11-01T02:21:06.177Z,12.5
2018-11-01T02:26:01.155Z,12.6
2018-11-01T02:31:01.181Z,12.8
2018-11-01T02:36:01.160Z,12.4
2018-11-01T02:41:06.121Z,12.0
2018-11-01T02:46:01.173Z,12.2
2018-11-01T02:51:01.300Z,12.8
2018-11-01T02:56:01.145Z,12.5
2018-11-01T03:01:01.110Z,11.8
2018-11-01T03:06:01.111Z,11.9
2018-11-01T03:11:01.243Z,12.0
2018-11-01T03:16:02.892Z,11.3
2018-11-01T03:21:01.237Z,11.6
2018-11-01T03:26:01.104Z,12.3
2018-11-01T03:31:01.175Z,12.2
2018-11-01T03:36:01.105Z,11.9
2018-11-01T03:41:01.241Z,11.7
2018-11-01T03:46:01.114Z,11.2
2018-11-01T03:51:02.272Z,9.9
2018-11-01T03:56:01.117Z,10.0
2018-11-01T04:01:01.143Z,9.9
2018-11-01T04:06:01.118Z,9.7
2018-11-01T04:11:01.159Z,9.8
2018-11-01T04:16:01.102Z,10.5
2018-11-01T04:21:01.233Z,10.4
2018-11-01T04:26:03.058Z,10.5
2018-11-01T04:31:01.240Z,10.8
2018-11-01T04:36:01.114Z,10.2
2018-11-01T04:41:01.171Z,10.0
2018-11-01T04:46:01.109Z,10.2
2018-11-01T04:56:01.375Z,9.6
2018-11-01T05:01:01.233Z,10.7
2018-11-01T05:06:01.107Z,11.2
2018-11-01T05:11:01.215Z,12.3
2018-11-01T05:16:01.134Z,15.9
2018-11-01T05:31:01.230Z,16.7
2018-11-01T05:36:01.114Z,15.4
2018-11-01T05:41:01.249Z,12.3
2018-11-01T05:46:01.318Z,12.9
2018-11-01T05:51:01.169Z,12.7
2018-11-01T05:56:01.110Z,11.6
2018-11-01T06:01:01.233Z,11.8
2018-11-01T06:06:01.102Z,11.7
2018-11-01T06:16:01.239Z,12.1
2018-11-01T06:21:01.176Z,12.6
2018-11-01T06:26:01.117Z,12.8
2018-11-01T06:31:01.183Z,12.9
2018-11-01T06:36:01.115Z,13.2
2018-11-01T06:46:01.181Z,12.8
2018-11-01T06:51:01.186Z,12.4
2018-11-01T06:56:01.112Z,12.0
2018-11-01T07:01:01.190Z,11.8
2018-11-01T07:07:01.266Z,11.4
2018-11-01T07:17:01.343Z,12.0
2018-11-01T07:32:01.186Z,11.5
2018-11-01T07:37:01.149Z,11.4
2018-11-01T07:42:01.286Z,10.8
2018-11-01T07:47:01.113Z,11.0
2018-11-01T07:52:01.247Z,10.5
2018-11-01T07:57:01.111Z,10.8
2018-11-01T08:02:01.231Z,11.2
2018-11-01T08:07:01.099Z,11.0
2018-11-01T08:12:01.294Z,10.5
2018-11-01T08:17:01.105Z,10.6
2018-11-01T08:22:01.170Z,10.1
2018-11-01T08:27:01.112Z,10.2
2018-11-01T08:32:01.229Z,11.1
2018-11-01T08:37:01.109Z,11.6
2018-11-01T08:42:01.195Z,11.8
2018-11-01T08:47:01.115Z,12.7
2018-11-01T08:52:06.115Z,13.2
2018-11-01T08:57:01.113Z,13.0
2018-11-01T09:02:01.141Z,13.4
2018-11-01T09:07:01.106Z,13.6
2018-11-01T09:12:01.234Z,13.5
2018-11-01T09:17:01.137Z,12.9
2018-11-01T09:22:01.169Z,13.4
2018-11-01T09:27:01.254Z,12.7
2018-11-01T09:32:01.173Z,12.4
2018-11-01T09:37:01.116Z,12.0
2018-11-01T09:42:06.121Z,12.2
2018-11-01T09:47:07.555Z,11.9
2018-11-01T09:52:01.277Z,13.0
2018-11-01T09:57:06.120Z,13.5
2018-11-01T10:02:06.188Z,14.4
2018-11-01T10:07:06.305Z,14.2
2018-11-01T10:17:01.298Z,13.8
2018-11-01T10:22:01.381Z,14.4
2018-11-01T10:27:01.105Z,14.6
2018-11-01T10:32:06.172Z,14.9
2018-11-01T10:37:01.100Z,15.9
2018-11-01T10:42:01.264Z,17.9
2018-11-01T10:47:01.141Z,19.1
2018-11-01T10:52:01.221Z,20.0
2018-11-01T10:57:06.113Z,20.8
2018-11-01T11:02:06.136Z,21.1
2018-11-01T11:07:01.153Z,20.9
2018-11-01T11:12:01.264Z,20.2
2018-11-01T11:17:06.118Z,21.6
2018-11-01T11:22:06.260Z,22.4
2018-11-01T11:27:01.113Z,22.5
2018-11-01T11:32:01.184Z,23.0
2018-11-01T11:37:01.154Z,23.8
2018-11-01T11:42:01.261Z,23.4
2018-11-01T11:47:01.150Z,24.6
2018-11-01T11:52:06.244Z,26.6
2018-11-01T11:57:06.190Z,27.4
2018-11-01T12:02:06.270Z,28.5
2018-11-01T12:07:01.163Z,28.6
2018-11-01T12:17:01.257Z,28.8
2018-11-01T12:22:01.112Z,29.9
2018-11-01T12:27:01.119Z,31.0
2018-11-01T12:32:01.104Z,31.5
2018-11-01T12:37:01.094Z,33.0
2018-11-01T12:42:01.103Z,34.8
2018-11-01T12:47:01.103Z,34.6
2018-11-01T12:52:01.164Z,34.5
2018-11-01T12:57:01.103Z,36.9
2018-11-01T13:02:01.245Z,35.6
2018-11-01T13:07:01.177Z,34.0
2018-11-01T13:12:01.234Z,33.3
2018-11-01T13:17:06.105Z,33.0
2018-11-01T13:22:06.179Z,32.0
2018-11-01T13:27:06.115Z,33.4
2018-11-01T13:32:01.390Z,34.1
2018-11-01T13:37:01.124Z,36.0
2018-11-01T13:42:01.113Z,36.6
2018-11-01T13:47:01.237Z,37.1
2018-11-01T13:52:01.234Z,38.7
2018-11-01T13:57:01.110Z,39.9
2018-11-01T14:02:01.195Z,38.3
2018-11-01T14:07:01.104Z,39.2
2018-11-01T14:12:01.109Z,39.6
2018-11-01T14:17:01.113Z,39.8
2018-11-01T14:22:01.181Z,39.9
2018-11-01T14:27:01.134Z,41.7
2018-11-01T14:32:01.116Z,42.8
2018-11-01T14:37:01.113Z,44.4
2018-11-01T14:42:01.179Z,45.6
2018-11-01T14:47:01.117Z,47.3
2018-11-01T14:53:02.411Z,48.0
2018-11-01T14:58:02.307Z,46.3
2018-11-01T15:03:01.236Z,43.8
2018-11-01T15:08:01.109Z,41.1
2018-11-01T15:13:01.241Z,38.9
2018-11-01T15:18:01.109Z,38.0
2018-11-01T15:23:01.173Z,40.2
2018-11-01T15:28:01.117Z,42.3
2018-11-01T15:33:01.135Z,44.3
2018-11-01T15:38:01.117Z,45.4
2018-11-01T15:43:01.180Z,45.6
2018-11-01T15:48:01.112Z,44.6
2018-11-01T15:53:01.182Z,44.0
2018-11-01T15:58:06.110Z,42.0
2018-11-01T16:03:06.245Z,40.9
2018-11-01T16:08:01.144Z,40.8
2018-11-01T16:13:01.096Z,39.1
2018-11-01T16:18:01.146Z,38.3
2018-11-01T16:23:06.184Z,39.8
2018-11-01T16:33:01.236Z,41.8
2018-11-01T16:38:01.110Z,44.1
2018-11-01T16:43:01.246Z,45.5
2018-11-01T16:48:06.150Z,45.9
2018-11-01T16:53:06.120Z,47.0
2018-11-01T16:58:01.143Z,47.4
2018-11-01T17:03:06.180Z,47.6
2018-11-01T17:08:06.119Z,47.4
2018-11-01T17:13:06.118Z,47.3
2018-11-01T17:18:01.154Z,48.9
2018-11-01T17:23:01.152Z,46.2
2018-11-01T17:28:01.157Z,46.5
2018-11-01T17:33:06.137Z,47.8
2018-11-01T17:38:01.149Z,47.7
2018-11-01T17:43:01.214Z,48.0
2018-11-01T17:49:06.108Z,49.6
2018-11-01T17:54:01.202Z,49.5
2018-11-01T17:59:06.119Z,48.9
2018-11-01T18:04:01.210Z,50.6
2018-11-01T18:09:01.187Z,50.2
2018-11-01T18:14:01.284Z,51.3
2018-11-01T18:19:01.150Z,52.6
2018-11-01T18:24:01.221Z,53.2
2018-11-01T18:29:06.313Z,54.0
2018-11-01T18:34:06.258Z,54.8
2018-11-01T18:39:01.245Z,55.0
2018-11-01T18:49:01.100Z,53.9
2018-11-01T18:54:01.320Z,53.8
2018-11-01T18:59:01.108Z,54.0
2018-11-01T19:04:01.232Z,54.6
2018-11-01T19:09:01.110Z,56.4
2018-11-01T19:14:01.264Z,58.5
2018-11-01T19:19:01.101Z,58.3
2018-11-01T19:24:06.178Z,58.6
2018-11-01T19:29:01.115Z,59.2
2018-11-01T19:34:06.327Z,57.8
2018-11-01T19:39:01.100Z,58.9
2018-11-01T19:44:01.241Z,59.7
2018-11-01T19:49:01.113Z,59.8
2018-11-01T19:54:01.189Z,59.4
2018-11-01T19:59:01.116Z,59.5
2018-11-01T20:04:01.150Z,58.1
2018-11-01T20:09:01.284Z,57.4
2018-11-01T20:14:01.109Z,57.3
2018-11-01T20:19:01.312Z,56.2
2018-11-01T20:24:01.165Z,55.2
2018-11-01T20:29:01.110Z,55.0
2018-11-01T20:34:01.113Z,55.2
2018-11-01T20:44:01.237Z,56.6
2018-11-01T20:49:06.120Z,57.9
2018-11-01T20:54:01.187Z,58.7
2018-11-01T20:59:01.140Z,57.6
2018-11-01T21:04:01.170Z,58.1
2018-11-01T21:09:01.140Z,57.4
2018-11-01T21:14:01.176Z,57.7
2018-11-01T21:19:01.119Z,58.0
2018-11-01T21:24:01.112Z,59.2
2018-11-01T21:29:01.134Z,58.2
2018-11-01T21:34:01.178Z,58.9
2018-11-01T21:39:01.112Z,57.8
2018-11-01T21:44:01.186Z,57.6
2018-11-01T21:49:01.114Z,57.4
2018-11-01T21:54:01.248Z,57.5
2018-11-01T21:59:01.127Z,58.1
2018-11-01T22:04:01.182Z,58.7
2018-11-01T22:14:01.195Z,57.8
2018-11-01T22:19:01.101Z,55.8
2018-11-01T22:24:01.334Z,54.5
2018-11-01T22:29:06.109Z,54.6
2018-11-01T22:34:06.240Z,54.4
2018-11-01T22:39:06.106Z,54.8
2018-11-01T22:44:01.207Z,55.4
2018-11-01T22:49:01.149Z,55.0
2018-11-01T22:54:01.473Z,53.3
2018-11-01T22:59:06.117Z,51.6
2018-11-01T23:04:06.205Z,49.8
2018-11-01T23:14:06.196Z,49.2
2018-11-01T23:19:01.320Z,48.8
2018-11-01T23:24:01.285Z,49.0
2018-11-01T23:29:01.172Z,48.5
2018-11-01T23:34:01.211Z,47.1
2018-11-01T23:39:01.122Z,45.9
2018-11-01T23:44:01.234Z,45.8
2018-11-01T23:49:01.274Z,43.4
2018-11-01T23:54:01.171Z,44.6
2018-11-01T23:59:01.111Z,44.0
